Time;durP1;ratioP1;P1;durP2;ratioP2;P2;SDS_P1;SDS_P2;PMS_P1;PMS_P2;Temp;Humidity;BMP_temperature;BMP_pressure;BME280_temperature;BME280_humidity;BME280_pressure;Samples;Min_cycle;Max_cycle;Signal;HPM_P1;HPM_P2
2021/12/14 03:07:49;;;;;;;11.07;9.07;;;;;;;6.97;88.08;102449.78;1878073;24;20147;-66
2021/12/14 03:09:07;;;;;;;10.20;9.10;;;;;;;6.95;87.98;102454.19;1992890;29;20055;-65
2021/12/14 03:10:32;;;;;;;11.23;10.05;;;;;;;6.96;88.35;102450.66;1992310;29;38668;-65
2021/12/14 03:11:37;;;;;;;11.90;9.88;;;;;;;6.97;88.17;102460.44;1993750;29;20239;-64
2021/12/14 03:12:45;;;;;;;11.75;9.77;;;;;;;6.96;88.27;102458.63;1996796;29;20126;-65
2021/12/14 03:13:51;;;;;;;12.85;10.05;;;;;;;6.96;88.00;102459.53;1999813;29;46358;-65
2021/12/14 03:15:06;;;;;;;12.13;10.27;;;;;;;6.97;88.32;102456.00;2001102;29;20197;-65
2021/12/14 03:16:23;;;;;;;11.43;9.52;;;;;;;6.97;88.02;102460.44;1998588;29;44217;-64
2021/12/14 03:17:25;;;;;;;14.27;10.05;;;;;;;6.96;88.04;102454.19;1994874;29;20054;-65
2021/12/14 03:18:36;;;;;;;14.63;9.48;;;;;;;6.97;88.42;102449.78;1999798;29;44147;-66
2021/12/14 03:19:38;;;;;;;11.82;10.20;;;;;;;6.97;87.73;102455.13;1998809;29;46537;-65
2021/12/14 03:20:50;;;;;;;12.38;10.80;;;;;;;6.98;87.59;102459.56;2001084;29;20856;-65
2021/12/14 03:21:52;;;;;;;11.70;10.18;;;;;;;6.98;88.19;102467.53;1999570;29;34161;-65
2021/12/14 03:23:34;;;;;;;14.32;11.13;;;;;;;6.99;88.13;102458.69;1992978;29;42532;-65
2021/12/14 03:24:38;;;;;;;14.43;11.05;;;;;;;6.99;88.05;102459.59;1988837;29;44820;-65
2021/12/14 03:25:46;;;;;;;14.57;10.65;;;;;;;6.98;88.62;102462.22;1989007;29;46606;-64
2021/12/14 03:26:53;;;;;;;14.90;10.45;;;;;;;6.97;88.28;102460.44;1993499;29;41474;-65
2021/12/14 03:27:57;;;;;;;12.68;10.80;;;;;;;6.98;88.14;102451.56;1994459;29;20043;-65
2021/12/14 03:29:09;;;;;;;14.75;11.25;;;;;;;6.97;87.84;102449.78;1992802;29;46623;-65
2021/12/14 03:30:39;;;;;;;11.93;9.90;;;;;;;6.96;88.36;102456.84;1993911;29;20102;-65
2021/12/14 03:31:49;;;;;;;12.98;11.38;;;;;;;6.97;88.39;102452.44;2000719;29;20111;-65
2021/12/14 03:33:17;;;;;;;14.52;11.38;;;;;;;6.97;88.35;102447.13;1993317;29;20051;-65
2021/12/14 03:34:36;;;;;;;12.38;10.60;;;;;;;6.99;88.14;102448.03;1993028;29;20095;-65
2021/12/14 03:35:51;;;;;;;13.65;10.75;;;;;;;6.97;88.06;102447.13;1984910;29;20829;-65
2021/12/14 03:37:09;;;;;;;16.40;11.98;;;;;;;6.98;87.91;102440.91;1989046;29;20078;-65
2021/12/14 03:38:25;;;;;;;15.05;12.10;;;;;;;6.98;88.46;102440.91;1986472;29;20857;-65
2021/12/14 03:39:42;;;;;;;18.33;11.90;;;;;;;6.97;88.44;102439.13;1980099;29;38289;-65
2021/12/14 03:40:54;;;;;;;15.23;12.00;;;;;;;6.96;88.26;102437.34;1982196;29;20059;-64
2021/12/14 03:42:07;;;;;;;13.23;10.27;;;;;;;6.99;87.66;102437.38;1994431;29;20821;-65
2021/12/14 03:43:13;;;;;;;15.88;12.35;;;;;;;6.97;88.08;102434.69;1991964;29;20047;-64
2021/12/14 03:44:31;;;;;;;15.40;12.25;;;;;;;6.99;88.15;102442.72;1986252;29;20233;-64
2021/12/14 03:45:34;;;;;;;16.25;12.32;;;;;;;6.99;88.03;102448.94;1988693;29;20058;-64
2021/12/14 03:47:05;;;;;;;14.75;12.75;;;;;;;7.00;87.88;102455.13;1991952;29;20038;-65
2021/12/14 03:48:10;;;;;;;12.38;11.02;;;;;;;6.99;88.24;102456.03;1985569;29;20087;-64
2021/12/14 03:49:12;;;;;;;16.98;13.07;;;;;;;6.99;88.04;102454.25;1985925;29;20050;-64
2021/12/14 03:50:30;;;;;;;13.43;12.00;;;;;;;6.99;88.24;102445.38;1992699;29;20939;-64
2021/12/14 03:51:35;;;;;;;17.65;12.43;;;;;;;7.00;87.95;102436.50;1993498;29;20097;-64
2021/12/14 03:52:43;;;;;;;14.65;13.15;;;;;;;6.98;88.21;102441.84;1992740;29;20893;-64
2021/12/14 03:53:54;;;;;;;14.80;12.52;;;;;;;6.99;88.08;102434.72;1985688;29;20054;-64
2021/12/14 03:55:00;;;;;;;14.82;13.00;;;;;;;6.98;88.24;102433.84;1989037;29;20310;-64
2021/12/14 03:56:07;;;;;;;15.55;12.80;;;;;;;6.98;88.20;102431.19;1993474;29;20175;-64
2021/12/14 03:57:10;;;;;;;17.70;13.45;;;;;;;6.98;87.60;102435.59;1986791;29;21072;-64
2021/12/14 03:58:25;;;;;;;15.77;13.63;;;;;;;6.98;87.89;102436.50;1986112;29;20950;-64
2021/12/14 03:59:31;;;;;;;14.75;13.15;;;;;;;6.98;87.63;102431.19;1993794;29;20267;-64
2021/12/14 04:00:44;;;;;;;15.73;13.10;;;;;;;6.98;88.04;102439.16;2001137;29;20039;-64
2021/12/14 04:01:50;;;;;;;15.13;13.15;;;;;;;6.98;87.73;102435.59;1999016;29;43911;-64
2021/12/14 04:02:59;;;;;;;16.73;13.38;;;;;;;6.97;87.93;102432.03;2000767;29;20501;-64
2021/12/14 04:04:19;;;;;;;16.00;13.55;;;;;;;6.99;87.86;102434.72;1991906;29;20059;-64
2021/12/14 04:05:22;;;;;;;17.35;13.95;;;;;;;6.98;88.44;102422.28;1986280;29;20205;-64
2021/12/14 04:06:27;;;;;;;17.20;14.10;;;;;;;6.98;87.81;102431.19;1986641;29;20047;-64
2021/12/14 04:07:31;;;;;;;18.08;13.65;;;;;;;6.98;88.11;102441.84;1985412;29;20162;-64
2021/12/14 04:08:47;;;;;;;17.23;13.80;;;;;;;7.00;87.83;102439.16;1987753;29;20091;-64
2021/12/14 04:09:51;;;;;;;16.23;14.02;;;;;;;7.01;87.70;102435.66;1992929;29;20945;-64
2021/12/14 04:10:59;;;;;;;19.40;14.25;;;;;;;7.00;87.61;102428.50;1987267;29;20047;-64
2021/12/14 04:12:06;;;;;;;17.13;13.60;;;;;;;7.00;87.78;102428.50;1986722;29;20175;-64
2021/12/14 04:13:17;;;;;;;17.00;14.45;;;;;;;7.00;87.84;102425.84;1986577;29;20043;-64
2021/12/14 04:14:20;;;;;;;17.05;13.05;;;;;;;7.01;87.69;102430.31;1992304;29;46089;-64
2021/12/14 04:15:23;;;;;;;16.50;12.98;;;;;;;7.00;87.83;102423.19;1986125;29;20097;-63
2021/12/14 04:16:26;;;;;;;15.35;13.27;;;;;;;7.00;87.78;102433.84;1986446;29;20051;-64
2021/12/14 04:17:30;;;;;;;16.85;13.77;;;;;;;7.00;87.58;102433.84;1992959;29;20135;-63
2021/12/14 04:18:35;;;;;;;16.75;13.95;;;;;;;7.00;87.68;102429.44;1992573;29;37518;-63
2021/12/14 04:19:39;;;;;;;16.85;14.63;;;;;;;7.00;87.37;102420.53;1993063;29;20105;-64
2021/12/14 04:20:45;;;;;;;18.63;14.75;;;;;;;6.99;87.69;102427.63;1993458;29;20055;-64
2021/12/14 04:21:49;;;;;;;16.77;14.38;;;;;;;6.99;87.77;102422.28;1993318;29;20051;-64
2021/12/14 04:22:51;;;;;;;17.65;14.25;;;;;;;6.99;88.12;102422.28;1985496;29;20103;-63
2021/12/14 04:23:54;;;;;;;16.88;14.38;;;;;;;6.99;87.60;102421.41;1986067;29;20205;-64
2021/12/14 04:25:06;;;;;;;16.77;14.77;;;;;;;6.98;87.81;102420.53;1987326;29;20063;-64
2021/12/14 04:26:14;;;;;;;18.17;14.02;;;;;;;6.99;88.00;102421.41;1994823;29;20068;-63
2021/12/14 04:27:25;;;;;;;17.25;13.90;;;;;;;6.98;87.72;102420.53;2000269;29;38124;-63
2021/12/14 04:28:35;;;;;;;16.15;13.77;;;;;;;6.99;87.69;102422.28;1993739;29;21048;-64
2021/12/14 04:29:37;;;;;;;17.67;13.85;;;;;;;7.00;88.35;102428.50;1985061;29;20264;-64
2021/12/14 04:30:42;;;;;;;16.30;13.43;;;;;;;6.99;88.19;102430.28;1980573;29;20043;-64
2021/12/14 04:31:49;;;;;;;18.20;14.00;;;;;;;6.98;87.86;102430.25;1981278;29;20190;-64
2021/12/14 04:32:59;;;;;;;18.55;14.57;;;;;;;6.99;87.73;102432.94;1972044;29;20178;-63
2021/12/14 04:34:02;;;;;;;16.77;13.60;;;;;;;6.98;88.24;102438.25;1978887;29;34676;-63
2021/12/14 04:35:07;;;;;;;15.52;13.75;;;;;;;6.99;87.65;102442.72;1985587;29;20120;-64
2021/12/14 04:36:15;;;;;;;16.98;13.80;;;;;;;6.97;88.15;102440.03;1991956;29;20184;-64
2021/12/14 04:37:19;;;;;;;18.75;14.10;;;;;;;6.97;88.23;102437.34;1978991;29;20922;-64
2021/12/14 04:38:28;;;;;;;19.38;13.80;;;;;;;6.97;88.30;102441.81;1978622;29;20105;-63
2021/12/14 04:51:57;;;;;;;19.25;15.60;;;;;;;6.98;87.91;102440.91;1995395;29;20096;-64
2021/12/14 04:52:28;;;;;;;20.75;15.30;;;;;;;7.00;88.33;102431.19;1995749;29;22858;-64
2021/12/14 04:53:36;;;;;;;18.38;14.73;;;;;;;6.99;88.33;102434.72;1984107;29;20779;-64
2021/12/14 04:55:08;;;;;;;18.95;14.30;;;;;;;6.99;88.49;102426.75;1987734;29;20161;-64
2021/12/14 04:56:27;;;;;;;23.33;16.10;;;;;;;6.98;88.28;102422.28;1979832;29;20918;-63
2021/12/14 04:57:47;;;;;;;18.33;15.10;;;;;;;6.98;88.22;102414.28;1990924;29;20123;-64
2021/12/14 04:59:00;;;;;;;21.00;16.30;;;;;;;6.97;88.56;102420.50;1991786;29;29041;-63
2021/12/14 05:00:48;;;;;;;21.65;15.45;;;;;;;6.97;88.46;102415.19;1984253;29;20913;-63
2021/12/14 05:02:13;;;;;;;21.27;15.70;;;;;;;6.96;88.69;102421.34;1992587;29;20051;-65
2021/12/14 05:04:03;;;;;;;19.80;14.68;;;;;;;6.94;88.39;102423.09;1980253;29;20048;-66
2021/12/14 05:05:07;;;;;;;18.20;14.55;;;;;;;6.94;88.33;102417.78;1970777;29;43197;-66
2021/12/14 05:06:16;;;;;;;21.85;16.33;;;;;;;6.91;88.33;102423.03;1965539;30;20052;-65
2021/12/14 05:07:48;;;;;;;21.00;16.13;;;;;;;6.89;88.75;102423.00;1971863;29;20059;-66
2021/12/14 05:09:22;;;;;;;21.20;15.85;;;;;;;6.88;89.17;102423.91;1969718;30;20102;-66
2021/12/14 05:10:45;;;;;;;20.95;16.02;;;;;;;6.87;89.06;102412.38;1968817;30;20148;-66
2021/12/14 05:12:15;;;;;;;17.90;14.98;;;;;;;6.87;88.86;102419.44;1979024;29;20125;-66
2021/12/14 05:13:46;;;;;;;20.85;15.88;;;;;;;6.89;89.22;102417.69;1980037;29;20064;-66
2021/12/14 05:15:02;;;;;;;20.38;16.10;;;;;;;6.87;88.70;102417.69;1978168;29;20910;-67
2021/12/14 05:16:05;;;;;;;21.45;16.55;;;;;;;6.88;89.05;102419.47;1970604;30;20056;-66
2021/12/14 05:17:13;;;;;;;21.92;16.27;;;;;;;6.88;88.28;102422.13;1963457;30;22214;-67
2021/12/14 05:18:16;;;;;;;22.85;16.40;;;;;;;6.87;88.95;102420.34;1971336;29;20159;-64
2021/12/14 05:19:26;;;;;;;22.38;16.92;;;;;;;6.88;89.03;102413.25;1978371;29;20099;-67
2021/12/14 05:20:28;;;;;;;22.35;16.77;;;;;;;6.85;89.11;102408.75;1977266;29;20052;-66
2021/12/14 05:21:48;;;;;;;20.08;16.02;;;;;;;6.86;88.72;102407.00;1978120;29;20047;-66
2021/12/14 05:22:54;;;;;;;18.70;15.10;;;;;;;6.85;89.44;102414.09;1978132;29;20913;-67
2021/12/14 05:24:03;;;;;;;20.00;15.30;;;;;;;6.84;88.91;102417.63;1969935;30;20059;-67
2021/12/14 05:25:20;;;;;;;19.23;14.93;;;;;;;6.83;89.36;102422.94;1979821;29;20133;-67
2021/12/14 05:26:25;;;;;;;19.23;15.88;;;;;;;6.80;89.54;102415.81;1985957;29;20062;-66
2021/12/14 05:27:37;;;;;;;17.98;14.75;;;;;;;6.80;89.53;102421.13;1970339;30;21044;-67
2021/12/14 05:28:42;;;;;;;21.30;16.00;;;;;;;6.82;89.10;102419.38;1963190;30;46132;-67
2021/12/14 05:29:50;;;;;;;21.15;16.33;;;;;;;6.82;88.91;102418.47;1970429;30;20064;-67
2021/12/14 05:30:57;;;;;;;19.67;14.55;;;;;;;6.82;89.46;102413.13;1972000;29;20219;-66
2021/12/14 05:32:15;;;;;;;20.77;15.77;;;;;;;6.82;89.25;102406.06;1979446;29;20075;-67
2021/12/14 05:33:23;;;;;;;22.90;17.25;;;;;;;6.83;89.34;102412.28;1971387;30;20847;-67
2021/12/14 05:34:28;;;;;;;21.45;16.33;;;;;;;6.82;89.36;102414.06;1976199;29;20848;-67
2021/12/14 05:35:37;;;;;;;22.13;17.25;;;;;;;6.82;89.42;102410.47;1972018;30;20904;-66
2021/12/14 05:36:44;;;;;;;22.42;15.68;;;;;;;6.83;89.80;102409.63;1964926;30;20418;-67
2021/12/14 05:37:52;;;;;;;19.73;16.05;;;;;;;6.82;89.46;102418.47;1972545;29;20044;-66
2021/12/14 05:39:06;;;;;;;19.80;16.15;;;;;;;6.83;89.50;102409.63;1978949;29;20043;-66
2021/12/14 05:43:05;;;;;;;19.35;14.63;;;;;;;6.83;89.13;102415.81;1975566;29;20052;-66
2021/12/14 05:43:30;;;;;;;20.17;15.30;;;;;;;6.84;88.94;102420.28;1971453;29;21041;-67
2021/12/14 05:44:44;;;;;;;20.50;16.40;;;;;;;6.83;89.25;102415.81;1972563;29;20033;-67
2021/12/14 05:45:53;;;;;;;20.83;16.00;;;;;;;6.84;89.25;102422.06;1971905;29;20906;-67
2021/12/14 05:47:00;;;;;;;18.55;15.75;;;;;;;6.85;89.01;102418.53;1972261;29;20092;-65
2021/12/14 05:48:28;;;;;;;20.65;15.68;;;;;;;6.84;89.34;102420.28;1979987;29;20148;-66
2021/12/14 05:49:30;;;;;;;20.83;15.80;;;;;;;6.84;89.47;102420.28;1979124;29;20938;-66
2021/12/14 05:50:37;;;;;;;20.10;16.60;;;;;;;6.84;89.92;102416.75;1985403;29;30986;-66
2021/12/14 05:51:42;;;;;;;19.38;15.43;;;;;;;6.85;89.47;102419.41;1986101;29;20251;-67
2021/12/14 05:52:44;;;;;;;22.52;17.13;;;;;;;6.84;89.43;102422.06;1971752;30;20052;-66
2021/12/14 05:53:51;;;;;;;22.80;16.13;;;;;;;6.86;89.46;102420.31;1979848;29;21140;-66
2021/12/14 05:54:56;;;;;;;19.77;15.57;;;;;;;6.85;89.29;102413.19;1986487;29;20115;-66
2021/12/14 05:56:07;;;;;;;23.05;17.77;;;;;;;6.85;89.39;102411.41;1971043;29;20048;-66
2021/12/14 05:57:19;;;;;;;;;;;;;;;6.85;89.31;102422.06;1972856;29;20052;-66
2021/12/14 05:58:24;;;;;;;19.77;16.27;;;;;;;6.85;89.40;102408.75;1973042;29;19930;-66
2021/12/14 05:59:33;;;;;;;21.35;17.30;;;;;;;6.84;89.58;102420.28;1979570;29;20189;-66
2021/12/14 06:00:36;;;;;;;22.25;17.00;;;;;;;6.85;89.45;102419.41;1977862;29;20162;-66
2021/12/14 06:01:44;;;;;;;21.25;16.00;;;;;;;6.84;89.95;102417.63;1972623;29;20048;-66
2021/12/14 06:02:47;;;;;;;21.85;16.80;;;;;;;6.84;89.25;102422.06;1970607;30;20129;-65
2021/12/14 06:03:56;;;;;;;23.20;17.95;;;;;;;6.84;89.59;102425.63;1972205;29;20045;-66
2021/12/14 06:04:59;;;;;;;22.05;17.58;;;;;;;6.85;89.38;102421.19;1986456;29;20893;-67
2021/12/14 06:06:03;;;;;;;22.90;16.58;;;;;;;6.85;89.66;102432.72;1978960;29;20052;-65
2021/12/14 06:07:07;;;;;;;23.77;16.55;;;;;;;6.85;89.34;102424.72;1979562;29;20052;-66
2021/12/14 06:08:18;;;;;;;21.95;17.27;;;;;;;6.85;90.03;102434.50;1978804;29;20055;-66
2021/12/14 06:09:31;;;;;;;22.88;17.02;;;;;;;6.83;89.42;102431.81;1971978;29;20999;-66
2021/12/14 06:10:55;;;;;;;22.75;17.15;;;;;;;6.83;89.77;102436.25;1967807;30;21022;-66
2021/12/14 06:12:11;;;;;;;25.23;17.50;;;;;;;6.84;89.07;102443.38;1979613;29;20047;-66
2021/12/14 06:13:17;;;;;;;23.10;17.70;;;;;;;6.83;89.68;102431.81;1985149;29;20997;-66
2021/12/14 06:14:23;;;;;;;20.90;16.00;;;;;;;6.84;89.74;102440.72;1977157;29;43823;-66
2021/12/14 06:15:28;;;;;;;22.45;17.58;;;;;;;6.84;89.80;102441.59;1979041;29;20044;-64
2021/12/14 06:17:00;;;;;;;22.15;16.95;;;;;;;6.84;90.07;102454.03;1975734;29;20136;-66
2021/12/14 06:18:02;;;;;;;24.13;18.35;;;;;;;6.84;89.87;102444.25;1980242;29;22168;-65
2021/12/14 06:19:48;;;;;;;22.77;17.92;;;;;;;6.83;89.62;102447.78;1958621;30;20049;-65
2021/12/14 06:20:50;;;;;;;22.98;18.23;;;;;;;6.85;89.92;102439.81;1961667;30;20060;-64
2021/12/14 06:21:59;;;;;;;24.15;17.52;;;;;;;6.85;89.75;102448.69;1959112;30;20057;-66
2021/12/14 06:23:02;;;;;;;25.27;18.58;;;;;;;6.85;89.12;102451.34;1972464;29;20048;-65
2021/12/14 06:24:41;;;;;;;25.88;18.35;;;;;;;6.86;90.05;102452.28;1978121;29;20065;-65
2021/12/14 06:25:44;;;;;;;25.73;19.08;;;;;;;6.86;89.81;102446.94;1985508;29;20272;-66
2021/12/14 06:26:51;;;;;;;27.27;18.92;;;;;;;6.85;89.83;102456.69;1978803;29;43943;-65
2021/12/14 06:28:01;;;;;;;23.48;19.05;;;;;;;6.87;89.78;102454.97;1971516;29;46450;-66
2021/12/14 06:29:21;;;;;;;24.20;19.02;;;;;;;6.87;89.64;102448.72;1986329;29;20275;-65
2021/12/14 06:30:28;;;;;;;23.55;17.83;;;;;;;6.87;89.77;102443.41;1976429;29;20906;-66
2021/12/14 06:31:32;;;;;;;26.55;19.55;;;;;;;6.87;89.80;102460.28;1971428;29;20874;-66
2021/12/14 06:33:11;;;;;;;26.05;19.17;;;;;;;6.87;89.81;102460.28;1963828;30;20796;-66
2021/12/14 06:34:28;;;;;;;25.52;19.40;;;;;;;6.87;89.47;102443.41;1975489;29;46459;-65
2021/12/14 06:36:00;;;;;;;26.40;19.45;;;;;;;6.87;89.65;102451.38;1972076;29;43740;-66
2021/12/14 06:38:39;;;;;;;26.58;19.52;;;;;;;6.87;89.66;102449.66;1982974;29;20169;-66
2021/12/14 06:40:18;;;;;;;26.70;19.58;;;;;;;6.87;89.71;102456.72;1986713;29;20060;-66
2021/12/14 06:41:23;;;;;;;26.27;19.00;;;;;;;6.88;89.96;102446.09;1973961;29;45647;-67
2021/12/14 06:42:34;;;;;;;28.95;20.00;;;;;;;6.87;90.07;102444.31;1978909;29;20051;-66
2021/12/14 06:43:43;;;;;;;25.08;19.80;;;;;;;6.86;89.97;102444.28;1977605;29;20044;-65
2021/12/14 06:44:47;;;;;;;26.90;20.23;;;;;;;6.86;89.91;102442.50;1971896;29;20141;-68
2021/12/14 06:45:57;;;;;;;27.90;20.33;;;;;;;6.86;90.13;102442.50;1985755;29;41662;-67
2021/12/14 06:46:59;;;;;;;28.92;19.48;;;;;;;6.86;90.27;102437.19;1977498;29;20052;-68
2021/12/14 06:48:13;;;;;;;29.23;20.67;;;;;;;6.86;89.94;102442.50;1971820;29;20052;-65
2021/12/14 06:49:15;;;;;;;28.23;20.25;;;;;;;6.84;89.90;102438.94;1971317;30;20040;-66
2021/12/14 06:50:26;;;;;;;28.88;20.33;;;;;;;6.84;90.08;102444.25;1964220;30;20057;-65
2021/12/14 06:51:39;;;;;;;26.52;20.55;;;;;;;6.84;89.98;102452.25;1974174;29;20549;-68
2021/12/14 06:53:05;;;;;;;26.73;18.67;;;;;;;6.86;90.06;102457.59;1984286;29;20051;-67
2021/12/14 06:54:36;;;;;;;26.38;19.77;;;;;;;6.86;90.35;102453.16;1974544;29;20052;-67
2021/12/14 06:56:06;;;;;;;29.63;19.70;;;;;;;6.85;89.92;102455.78;1970241;30;20040;-67
2021/12/14 06:57:36;;;;;;;28.45;20.85;;;;;;;6.86;90.19;102458.47;1972194;29;20053;-68
2021/12/14 06:58:56;;;;;;;27.20;20.15;;;;;;;6.84;90.35;102460.22;1978964;29;20047;-68
2021/12/14 07:00:18;;;;;;;29.38;20.70;;;;;;;6.86;90.22;102461.16;1975127;29;20051;-65
2021/12/14 07:01:35;;;;;;;28.48;20.27;;;;;;;6.87;90.29;102470.03;1986618;29;20098;-67
2021/12/14 07:02:37;;;;;;;27.85;19.95;;;;;;;6.85;90.30;102470.00;1976527;29;20101;-67
2021/12/14 07:03:58;;;;;;;29.67;22.05;;;;;;;6.86;90.25;102469.13;1972076;29;20067;-67
2021/12/14 07:05:00;;;;;;;28.17;20.88;;;;;;;6.85;90.48;102467.31;1986276;29;20101;-67
2021/12/14 07:06:12;;;;;;;30.30;21.38;;;;;;;6.86;90.27;102469.13;1978441;29;20052;-66
2021/12/14 07:07:25;;;;;;;31.02;21.90;;;;;;;6.85;90.32;102467.31;1965333;29;20052;-65
2021/12/14 07:08:30;;;;;;;33.58;22.38;;;;;;;6.86;90.65;102469.13;1972672;29;20049;-66
2021/12/14 07:09:43;;;;;;;31.38;22.85;;;;;;;6.86;90.27;102469.13;1977957;29;45520;-67
2021/12/14 07:10:48;;;;;;;30.77;21.67;;;;;;;6.86;90.57;102465.59;1971860;30;20125;-65
2021/12/14 07:12:09;;;;;;;29.17;21.48;;;;;;;6.87;90.73;102462.97;1971559;29;44156;-68
2021/12/14 07:13:20;;;;;;;31.70;22.77;;;;;;;6.86;90.52;102463.81;1970992;30;45259;-67
2021/12/14 07:14:28;;;;;;;30.90;23.23;;;;;;;6.87;90.33;102460.28;1971558;29;23673;-64
2021/12/14 07:15:36;;;;;;;30.10;22.73;;;;;;;6.88;90.44;102466.50;1971214;29;45666;-68
2021/12/14 07:16:39;;;;;;;33.92;23.83;;;;;;;6.86;90.11;102469.13;1971625;29;24763;-67
2021/12/14 07:17:54;;;;;;;29.55;22.65;;;;;;;6.87;90.43;102476.28;1985087;29;44046;-67
2021/12/14 07:19:02;;;;;;;32.80;22.80;;;;;;;6.87;90.50;102478.94;1982299;29;28848;-66
2021/12/14 07:20:30;;;;;;;28.17;20.80;;;;;;;6.88;90.12;102477.16;1978103;29;43788;-65
2021/12/14 07:21:37;;;;;;;29.83;21.67;;;;;;;6.88;90.86;102470.06;1972379;29;28966;-68
2021/12/14 07:22:49;;;;;;;28.85;20.02;;;;;;;6.88;90.53;102474.50;1965061;30;43509;-65
2021/12/14 07:23:51;;;;;;;34.30;24.25;;;;;;;6.88;90.63;102467.38;1970791;30;45697;-65
2021/12/14 07:25:14;;;;;;;31.52;23.92;;;;;;;6.87;90.83;102468.28;1970282;30;26213;-65
2021/12/14 07:26:18;;;;;;;28.17;22.33;;;;;;;6.90;90.59;102471.84;1969983;29;43965;-65
2021/12/14 07:27:26;;;;;;;33.55;23.92;;;;;;;6.89;90.63;102470.94;1970508;30;45531;-66
2021/12/14 07:28:57;;;;;;;29.83;22.83;;;;;;;6.88;90.72;102467.38;1970443;30;45823;-66
2021/12/14 07:30:08;;;;;;;33.90;24.70;;;;;;;6.88;90.97;102466.50;1970888;30;20178;-65
2021/12/14 07:31:20;;;;;;;31.92;23.05;;;;;;;6.90;91.07;102466.53;1971377;29;33607;-66
2021/12/14 07:32:54;;;;;;;34.63;22.30;;;;;;;6.90;91.67;102474.53;1971575;29;43982;-66
2021/12/14 07:33:59;;;;;;;35.92;25.23;;;;;;;6.87;91.18;102476.28;1962404;30;45390;-65
2021/12/14 07:35:34;;;;;;;30.95;23.42;;;;;;;6.90;91.76;102474.53;1971254;29;46671;-65
2021/12/14 07:36:39;;;;;;;33.58;24.85;;;;;;;6.88;91.39;102467.38;1971285;29;42432;-65
2021/12/14 07:37:43;;;;;;;37.00;26.40;;;;;;;6.88;91.37;102466.50;1971187;30;42759;-66
2021/12/14 07:38:59;;;;;;;35.63;24.55;;;;;;;6.88;91.27;102469.16;1971494;29;27728;-64
2021/12/14 07:40:02;;;;;;;35.13;23.77;;;;;;;6.88;91.41;102461.19;1971004;29;45328;-65
2021/12/14 07:41:30;;;;;;;35.55;24.63;;;;;;;6.88;91.05;102466.50;1970775;30;42973;-64
2021/12/14 07:42:32;;;;;;;34.50;25.27;;;;;;;6.89;91.36;102468.28;1971002;29;24717;-65
2021/12/14 07:43:43;;;;;;;33.63;23.45;;;;;;;6.88;91.15;102466.50;1985869;29;34248;-67
2021/12/14 07:44:45;;;;;;;37.03;25.10;;;;;;;6.88;91.49;102462.06;1976295;29;43847;-65
2021/12/14 07:45:54;;;;;;;38.42;26.80;;;;;;;6.90;91.38;102474.53;1971321;29;43939;-67
2021/12/14 07:47:02;;;;;;;35.08;25.98;;;;;;;6.90;91.03;102474.53;1970920;30;46565;-67
2021/12/14 07:48:04;;;;;;;37.50;26.67;;;;;;;6.91;91.29;102478.97;1971570;29;23995;-65
2021/12/14 07:49:32;;;;;;;38.88;26.70;;;;;;;6.91;91.30;102476.28;1971103;29;44307;-66
2021/12/14 07:50:57;;;;;;;33.83;24.15;;;;;;;6.92;91.78;102483.44;1970970;30;44560;-66
2021/12/14 07:52:14;;;;;;;40.22;26.45;;;;;;;6.93;91.11;102487.88;1971044;29;45546;-66
2021/12/14 07:53:33;;;;;;;37.33;24.80;;;;;;;6.94;91.27;102487.00;1971833;30;20229;-66
2021/12/14 07:54:46;;;;;;;36.50;26.65;;;;;;;6.94;91.77;102497.66;1970489;29;42335;-66
2021/12/14 07:55:52;;;;;;;36.60;26.58;;;;;;;6.93;91.81;102496.78;1971484;30;32486;-66
2021/12/14 07:57:20;;;;;;;40.42;27.52;;;;;;;6.95;91.42;102492.38;1971455;29;20055;-65
2021/12/14 07:58:41;;;;;;;38.33;27.20;;;;;;;6.95;91.42;102502.13;1971879;29;30879;-65
2021/12/14 07:59:54;;;;;;;39.03;26.50;;;;;;;6.95;91.37;102505.69;1970911;29;45708;-70
2021/12/14 08:00:56;;;;;;;37.63;26.25;;;;;;;6.95;91.68;102510.13;1970318;29;24280;-65
2021/12/14 08:02:21;;;;;;;39.47;27.48;;;;;;;6.96;91.22;102510.13;1967858;29;48109;-65
2021/12/14 08:03:33;;;;;;;40.50;26.58;;;;;;;6.97;91.47;102509.25;1970525;29;46816;-65
2021/12/14 08:04:37;;;;;;;37.88;27.00;;;;;;;6.97;91.27;102509.25;1955650;30;43710;-65
2021/12/14 08:05:47;;;;;;;43.22;28.77;;;;;;;6.98;91.34;102519.06;1961963;30;45396;-65
2021/12/14 08:06:54;;;;;;;;;;;;;;;6.99;91.41;102519.94;1961009;30;20095;-65
2021/12/14 08:08:17;;;;;;;38.47;25.23;;;;;;;6.99;91.17;102515.50;1957547;30;44459;-65
2021/12/14 08:09:50;;;;;;;37.55;27.13;;;;;;;7.00;91.78;102521.72;1963464;30;45149;-65
2021/12/14 08:11:29;;;;;;;43.40;28.35;;;;;;;7.02;91.13;102533.31;1963274;30;42437;-64
2021/12/14 08:12:40;;;;;;;38.05;27.42;;;;;;;7.01;91.45;102528.84;1963409;30;44315;-65
2021/12/14 08:13:49;;;;;;;38.65;27.52;;;;;;;7.02;91.63;102528.00;1963242;30;45604;-65
2021/12/14 08:15:24;;;;;;;36.03;26.17;;;;;;;7.03;91.38;102527.09;1969635;30;45374;-64
2021/12/14 08:16:37;;;;;;;40.53;27.63;;;;;;;7.02;91.22;102518.22;1965889;30;44707;-65
2021/12/14 08:17:41;;;;;;;38.63;26.77;;;;;;;7.04;91.74;102526.25;1969057;29;42212;-64
2021/12/14 08:18:44;;;;;;;39.45;27.50;;;;;;;7.04;91.89;102518.25;1963095;30;29668;-64
2021/12/14 08:19:52;;;;;;;37.85;26.33;;;;;;;7.04;91.38;102512.94;1962858;29;46225;-65
2021/12/14 08:21:19;;;;;;;39.90;27.17;;;;;;;7.05;91.20;102517.38;1962703;30;45458;-64
2021/12/14 08:22:33;;;;;;;41.72;28.45;;;;;;;7.08;91.19;102520.09;1966665;30;45084;-65
2021/12/14 08:23:48;;;;;;;38.78;27.52;;;;;;;7.08;91.56;102522.75;1970753;30;43803;-64
2021/12/14 08:24:50;;;;;;;41.80;28.77;;;;;;;7.08;91.38;102525.41;1971454;30;29848;-64
2021/12/14 08:26:08;;;;;;;41.30;27.92;;;;;;;7.10;91.38;102529.00;1970767;30;46190;-64
2021/12/14 08:27:10;;;;;;;42.58;29.95;;;;;;;7.08;91.23;102517.44;1970710;30;43558;-65
2021/12/14 08:28:13;;;;;;;40.42;27.95;;;;;;;7.09;91.74;102524.56;1969681;29;44080;-65
2021/12/14 08:29:28;;;;;;;42.03;29.80;;;;;;;7.09;91.40;102513.91;1969996;29;32372;-65
2021/12/14 08:30:32;;;;;;;43.55;28.33;;;;;;;7.10;91.74;102521.00;1960722;30;44124;-65
2021/12/14 08:31:50;;;;;;;40.53;29.05;;;;;;;7.11;91.73;102517.50;1963970;30;46598;-65
2021/12/14 08:32:51;;;;;;;42.45;29.25;;;;;;;7.12;91.65;102524.59;1970507;30;42436;-65
2021/12/14 08:34:20;;;;;;;44.30;29.50;;;;;;;7.12;91.73;102523.72;1970951;29;20241;-65
2021/12/14 08:35:22;;;;;;;39.20;26.40;;;;;;;7.13;91.46;102520.19;1967976;29;45851;-65
2021/12/14 08:36:37;;;;;;;40.13;28.85;;;;;;;7.14;91.17;102517.56;1961820;30;45457;-64
2021/12/14 08:37:46;;;;;;;40.30;28.02;;;;;;;7.14;91.28;102517.56;1962720;30;29475;-65
2021/12/14 08:39:01;;;;;;;41.45;28.85;;;;;;;7.16;91.33;102518.47;1966366;30;42615;-65
2021/12/14 08:40:18;;;;;;;42.80;30.50;;;;;;;7.17;91.47;102524.69;1977379;29;44305;-65
2021/12/14 08:41:23;;;;;;;42.15;30.13;;;;;;;7.16;91.67;102510.47;1973789;29;45717;-65
2021/12/14 08:42:44;;;;;;;40.38;28.95;;;;;;;7.18;91.12;102524.72;1970280;30;45278;-65
2021/12/14 08:43:50;;;;;;;40.92;29.38;;;;;;;7.19;91.71;102518.50;1970792;30;46332;-65
2021/12/14 08:44:59;;;;;;;44.47;29.33;;;;;;;7.21;91.04;102529.19;1968572;30;43973;-62
2021/12/14 08:46:10;;;;;;;40.95;27.98;;;;;;;7.21;91.31;102527.44;1977047;29;45597;-64
2021/12/14 08:47:23;;;;;;;42.53;30.17;;;;;;;7.22;91.20;102529.22;1975305;29;44819;-64
2021/12/14 08:48:32;;;;;;;41.95;30.13;;;;;;;7.24;91.22;102532.78;1970294;30;44108;-64
2021/12/14 08:49:34;;;;;;;41.28;29.90;;;;;;;7.26;91.16;102532.81;1970737;30;46531;-64
2021/12/14 08:50:45;;;;;;;43.28;30.15;;;;;;;7.28;91.16;102527.53;1970885;30;41716;-64
2021/12/14 08:51:50;;;;;;;40.55;28.98;;;;;;;7.28;91.43;102528.41;1971022;30;32580;-64
2021/12/14 08:52:53;;;;;;;43.67;30.52;;;;;;;7.26;91.31;102520.38;1968930;30;45149;-65
2021/12/14 08:54:10;;;;;;;42.15;28.42;;;;;;;7.29;91.15;102530.22;1977418;29;44812;-65